Weather at Blestergrende Airstrip

Public forecast

Using degrees Celsius for public forecast. Weather courtesy of forecast.io.

Closest aviation weather report (METAR) to Blestergrende Airstrip

Closest report is Molde Airport, Årø, 64.0 nm (118.5 km) NW.

2024/05/22 19:50 (retrieved 37 minutes ago)

ENML 221950Z 20003KT CAVOK 18/12 Q1015

Closest aviation forecast (TAF) to Blestergrende Airstrip

Closest forecast is Trondheim Airport, Værnes, 97.3 nm (180.2 km) NNE.

2024/05/22 18:36 (retrieved 2 hours ago)

TAF ENVA 221700Z 2218/2318 16009KT CAVOK TEMPO 2218/2314 17015G25KT